sensor_id;sensor_type;location;lat;lon;timestamp;pressure;altitude;pressure_sealevel;temperature;humidity
70250;BME280;57644;48.416;-123.374;2022-10-03T00:01:52;101463.53;;;12.20;60.37
70250;BME280;57644;48.416;-123.374;2022-10-03T00:04:23;101462.09;;;12.21;60.31
70250;BME280;57644;48.416;-123.374;2022-10-03T00:06:49;101462.35;;;12.13;60.72
70250;BME280;57644;48.416;-123.374;2022-10-03T00:09:25;101458.81;;;12.21;60.63
70250;BME280;57644;48.416;-123.374;2022-10-03T00:11:53;101457.17;;;12.23;60.46
70250;BME280;57644;48.416;-123.374;2022-10-03T00:14:18;101455.80;;;12.25;60.35
70250;BME280;57644;48.416;-123.374;2022-10-03T00:16:48;101456.64;;;12.28;60.34
70250;BME280;57644;48.416;-123.374;2022-10-03T00:19:19;101457.22;;;12.35;60.27
70250;BME280;57644;48.416;-123.374;2022-10-03T00:21:52;101452.34;;;12.35;60.19
70250;BME280;57644;48.416;-123.374;2022-10-03T00:24:22;101451.40;;;12.36;60.09
70250;BME280;57644;48.416;-123.374;2022-10-03T00:26:48;101454.13;;;12.38;60.00
70250;BME280;57644;48.416;-123.374;2022-10-03T00:29:28;101455.25;;;12.38;60.17
70250;BME280;57644;48.416;-123.374;2022-10-03T00:31:52;101456.27;;;12.42;60.13
70250;BME280;57644;48.416;-123.374;2022-10-03T00:34:24;101457.61;;;12.43;60.09
70250;BME280;57644;48.416;-123.374;2022-10-03T00:36:49;101458.31;;;12.37;60.08
70250;BME280;57644;48.416;-123.374;2022-10-03T00:39:22;101459.80;;;12.37;60.16
70250;BME280;57644;48.416;-123.374;2022-10-03T00:46:55;101461.89;;;12.28;60.31
70250;BME280;57644;48.416;-123.374;2022-10-03T00:51:59;101459.65;;;12.28;60.26
70250;BME280;57644;48.416;-123.374;2022-10-03T00:56:58;101459.85;;;12.24;60.41
70250;BME280;57644;48.416;-123.374;2022-10-03T00:59:29;101460.67;;;12.25;60.31
70250;BME280;57644;48.416;-123.374;2022-10-03T01:01:49;101461.54;;;12.25;60.29
70250;BME280;57644;48.416;-123.374;2022-10-03T01:04:32;101458.51;;;12.25;60.41
70250;BME280;57644;48.416;-123.374;2022-10-03T01:07:05;101458.90;;;12.21;60.59
70250;BME280;57644;48.416;-123.374;2022-10-03T01:09:29;101458.58;;;12.20;60.48
70250;BME280;57644;48.416;-123.374;2022-10-03T01:12:02;101459.97;;;12.17;61.18
70250;BME280;57644;48.416;-123.374;2022-10-03T01:17:00;101459.62;;;12.16;60.97
70250;BME280;57644;48.416;-123.374;2022-10-03T01:19:39;101461.79;;;12.16;61.01
70250;BME280;57644;48.416;-123.374;2022-10-03T01:21:59;101463.87;;;12.18;60.88
70250;BME280;57644;48.416;-123.374;2022-10-03T01:24:35;101461.85;;;12.06;61.52
70250;BME280;57644;48.416;-123.374;2022-10-03T01:26:56;101461.53;;;11.94;61.90
70250;BME280;57644;48.416;-123.374;2022-10-03T01:31:59;101459.40;;;11.95;61.45
70250;BME280;57644;48.416;-123.374;2022-10-03T01:34:28;101461.35;;;11.87;62.13
70250;BME280;57644;48.416;-123.374;2022-10-03T01:37:02;101461.98;;;11.82;62.35
70250;BME280;57644;48.416;-123.374;2022-10-03T01:39:30;101460.80;;;11.77;62.82
70250;BME280;57644;48.416;-123.374;2022-10-03T01:41:58;101460.00;;;11.74;62.93
70250;BME280;57644;48.416;-123.374;2022-10-03T01:44:30;101460.79;;;11.74;63.37
70250;BME280;57644;48.416;-123.374;2022-10-03T01:47:06;101464.25;;;11.75;62.77
70250;BME280;57644;48.416;-123.374;2022-10-03T01:49:30;101460.28;;;11.76;62.71
70250;BME280;57644;48.416;-123.374;2022-10-03T01:52:02;101468.74;;;11.72;63.00
70250;BME280;57644;48.416;-123.374;2022-10-03T01:54:34;101472.79;;;11.63;63.11
70250;BME280;57644;48.416;-123.374;2022-10-03T01:57:01;101474.32;;;11.60;63.05
70250;BME280;57644;48.416;-123.374;2022-10-03T01:59:35;101472.71;;;11.54;63.28
70250;BME280;57644;48.416;-123.374;2022-10-03T02:02:03;101471.03;;;11.50;63.30
70250;BME280;57644;48.416;-123.374;2022-10-03T02:04:38;101475.06;;;11.52;62.81
70250;BME280;57644;48.416;-123.374;2022-10-03T02:07:04;101472.85;;;11.39;63.66
70250;BME280;57644;48.416;-123.374;2022-10-03T02:09:34;101471.32;;;11.37;63.43
70250;BME280;57644;48.416;-123.374;2022-10-03T02:12:07;101474.22;;;11.29;63.91
70250;BME280;57644;48.416;-123.374;2022-10-03T02:14:34;101473.99;;;11.24;64.01
70250;BME280;57644;48.416;-123.374;2022-10-03T02:17:02;101474.61;;;11.24;64.00
70250;BME280;57644;48.416;-123.374;2022-10-03T02:19:33;101474.78;;;11.22;64.05
70250;BME280;57644;48.416;-123.374;2022-10-03T02:21:59;101472.83;;;11.19;64.28
70250;BME280;57644;48.416;-123.374;2022-10-03T02:24:39;101473.98;;;11.16;64.36
70250;BME280;57644;48.416;-123.374;2022-10-03T02:32:15;101479.39;;;10.94;64.73
70250;BME280;57644;48.416;-123.374;2022-10-03T03:02:14;101480.32;;;10.70;66.84
70250;BME280;57644;48.416;-123.374;2022-10-03T03:14:50;101491.86;;;10.78;67.25
70250;BME280;57644;48.416;-123.374;2022-10-03T03:17:15;101493.85;;;10.78;67.14
70250;BME280;57644;48.416;-123.374;2022-10-03T03:19:47;101495.74;;;10.82;67.23
70250;BME280;57644;48.416;-123.374;2022-10-03T03:22:17;101495.06;;;10.80;67.08
70250;BME280;57644;48.416;-123.374;2022-10-03T03:27:15;101491.86;;;10.71;67.07
70250;BME280;57644;48.416;-123.374;2022-10-03T03:29:44;101496.36;;;10.72;67.09
70250;BME280;57644;48.416;-123.374;2022-10-03T03:32:16;101498.65;;;10.76;67.01
70250;BME280;57644;48.416;-123.374;2022-10-03T03:34:43;101503.08;;;10.72;66.87
70250;BME280;57644;48.416;-123.374;2022-10-03T03:37:12;101503.44;;;10.72;67.09
70250;BME280;57644;48.416;-123.374;2022-10-03T03:39:49;101509.78;;;10.72;67.14
70250;BME280;57644;48.416;-123.374;2022-10-03T03:42:23;101511.59;;;10.75;67.19
70250;BME280;57644;48.416;-123.374;2022-10-03T03:44:59;101514.31;;;10.77;67.14
70250;BME280;57644;48.416;-123.374;2022-10-03T03:47:23;101514.38;;;10.73;67.62
70250;BME280;57644;48.416;-123.374;2022-10-03T03:49:53;101514.06;;;10.70;67.26
70250;BME280;57644;48.416;-123.374;2022-10-03T03:52:27;101517.21;;;10.66;67.46
70250;BME280;57644;48.416;-123.374;2022-10-03T03:54:58;101521.60;;;10.61;67.72
70250;BME280;57644;48.416;-123.374;2022-10-03T03:57:24;101524.57;;;10.52;68.04
70250;BME280;57644;48.416;-123.374;2022-10-03T04:02:23;101522.99;;;10.49;67.41
70250;BME280;57644;48.416;-123.374;2022-10-03T04:04:54;101523.51;;;10.46;67.58
70250;BME280;57644;48.416;-123.374;2022-10-03T04:07:25;101526.55;;;10.50;67.57
70250;BME280;57644;48.416;-123.374;2022-10-03T04:09:58;101528.19;;;10.51;67.50
70250;BME280;57644;48.416;-123.374;2022-10-03T04:12:24;101531.07;;;10.51;67.53
70250;BME280;57644;48.416;-123.374;2022-10-03T04:14:59;101528.59;;;10.43;68.04
70250;BME280;57644;48.416;-123.374;2022-10-03T04:17:32;101526.80;;;10.48;67.95
70250;BME280;57644;48.416;-123.374;2022-10-03T04:19:58;101530.71;;;10.47;67.85
70250;BME280;57644;48.416;-123.374;2022-10-03T04:22:29;101531.45;;;10.43;67.84
70250;BME280;57644;48.416;-123.374;2022-10-03T04:27:27;101537.88;;;10.14;68.48
70250;BME280;57644;48.416;-123.374;2022-10-03T04:29:50;101540.30;;;10.20;68.28
70250;BME280;57644;48.416;-123.374;2022-10-03T04:32:24;101545.46;;;10.25;68.08
70250;BME280;57644;48.416;-123.374;2022-10-03T04:35:01;101542.62;;;10.32;68.00
70250;BME280;57644;48.416;-123.374;2022-10-03T04:37:25;101542.83;;;10.35;67.97
70250;BME280;57644;48.416;-123.374;2022-10-03T04:39:57;101544.87;;;10.24;68.27
70250;BME280;57644;48.416;-123.374;2022-10-03T04:42:28;101543.34;;;10.15;68.46
70250;BME280;57644;48.416;-123.374;2022-10-03T04:44:59;101545.58;;;10.18;68.65
70250;BME280;57644;48.416;-123.374;2022-10-03T04:47:24;101550.05;;;10.16;69.20
70250;BME280;57644;48.416;-123.374;2022-10-03T04:49:54;101547.98;;;10.18;68.79
70250;BME280;57644;48.416;-123.374;2022-10-03T04:52:26;101547.83;;;10.15;68.83
70250;BME280;57644;48.416;-123.374;2022-10-03T04:54:56;101545.47;;;9.75;69.66
70250;BME280;57644;48.416;-123.374;2022-10-03T04:57:27;101549.29;;;9.81;69.41
70250;BME280;57644;48.416;-123.374;2022-10-03T04:59:56;101550.21;;;9.53;70.25
70250;BME280;57644;48.416;-123.374;2022-10-03T05:02:29;101554.57;;;9.44;70.54
70250;BME280;57644;48.416;-123.374;2022-10-03T05:05:14;101551.58;;;9.49;70.51
70250;BME280;57644;48.416;-123.374;2022-10-03T05:07:28;101554.96;;;9.27;71.12
70250;BME280;57644;48.416;-123.374;2022-10-03T05:09:55;101556.45;;;9.36;70.56
70250;BME280;57644;48.416;-123.374;2022-10-03T05:12:33;101552.50;;;9.53;69.88
70250;BME280;57644;48.416;-123.374;2022-10-03T05:15:01;101554.27;;;9.59;69.67
70250;BME280;57644;48.416;-123.374;2022-10-03T05:17:29;101557.25;;;9.72;69.49
70250;BME280;57644;48.416;-123.374;2022-10-03T05:20:01;101559.81;;;9.85;69.48
70250;BME280;57644;48.416;-123.374;2022-10-03T05:22:35;101564.08;;;9.94;69.15
70250;BME280;57644;48.416;-123.374;2022-10-03T05:25:00;101564.10;;;9.96;69.22
70250;BME280;57644;48.416;-123.374;2022-10-03T05:27:32;101570.28;;;9.95;69.57
70250;BME280;57644;48.416;-123.374;2022-10-03T05:30:00;101576.20;;;9.97;69.54
70250;BME280;57644;48.416;-123.374;2022-10-03T05:32:29;101578.97;;;9.92;69.61
70250;BME280;57644;48.416;-123.374;2022-10-03T05:35:20;101578.85;;;9.92;69.70
70250;BME280;57644;48.416;-123.374;2022-10-03T05:39:59;101585.30;;;9.61;70.81
70250;BME280;57644;48.416;-123.374;2022-10-03T05:42:37;101591.77;;;9.54;70.70
70250;BME280;57644;48.416;-123.374;2022-10-03T05:45:03;101593.72;;;9.59;70.74
70250;BME280;57644;48.416;-123.374;2022-10-03T05:47:30;101595.08;;;9.65;70.39
70250;BME280;57644;48.416;-123.374;2022-10-03T05:50:08;101598.67;;;9.63;70.43
70250;BME280;57644;48.416;-123.374;2022-10-03T05:52:44;101597.93;;;9.67;70.39
70250;BME280;57644;48.416;-123.374;2022-10-03T06:00:05;101598.63;;;9.47;70.96
70250;BME280;57644;48.416;-123.374;2022-10-03T06:05:12;101600.56;;;9.31;71.37
70250;BME280;57644;48.416;-123.374;2022-10-03T06:07:38;101598.28;;;9.30;71.56
70250;BME280;57644;48.416;-123.374;2022-10-03T06:12:38;101598.48;;;9.33;71.56
70250;BME280;57644;48.416;-123.374;2022-10-03T06:15:19;101597.83;;;9.37;71.53
70250;BME280;57644;48.416;-123.374;2022-10-03T06:17:49;101598.60;;;9.26;72.38
70250;BME280;57644;48.416;-123.374;2022-10-03T06:20:18;101597.90;;;9.17;72.34
70250;BME280;57644;48.416;-123.374;2022-10-03T06:30:11;101610.72;;;9.26;72.01
70250;BME280;57644;48.416;-123.374;2022-10-03T06:42:43;101611.72;;;9.10;72.58
70250;BME280;57644;48.416;-123.374;2022-10-03T06:45:15;101614.74;;;9.13;72.38
70250;BME280;57644;48.416;-123.374;2022-10-03T06:52:48;101623.47;;;9.16;72.45
70250;BME280;57644;48.416;-123.374;2022-10-03T06:57:47;101628.02;;;9.00;72.85
70250;BME280;57644;48.416;-123.374;2022-10-03T07:00:14;101626.53;;;8.85;73.36
70250;BME280;57644;48.416;-123.374;2022-10-03T07:02:50;101626.92;;;8.86;73.48
70250;BME280;57644;48.416;-123.374;2022-10-03T07:10:24;101634.58;;;8.90;73.29
70250;BME280;57644;48.416;-123.374;2022-10-03T07:12:55;101635.32;;;8.89;73.40
70250;BME280;57644;48.416;-123.374;2022-10-03T07:15:20;101633.17;;;8.91;73.31
70250;BME280;57644;48.416;-123.374;2022-10-03T07:17:49;101638.15;;;8.90;73.33
70250;BME280;57644;48.416;-123.374;2022-10-03T07:27:51;101648.16;;;8.65;74.11
70250;BME280;57644;48.416;-123.374;2022-10-03T07:30:16;101651.13;;;8.52;74.51
70250;BME280;57644;48.416;-123.374;2022-10-03T07:40:29;101658.40;;;8.40;74.70
70250;BME280;57644;48.416;-123.374;2022-10-03T07:50:25;101654.47;;;8.28;75.35
70250;BME280;57644;48.416;-123.374;2022-10-03T07:52:59;101657.37;;;8.28;75.35
70250;BME280;57644;48.416;-123.374;2022-10-03T07:55:24;101659.69;;;8.32;75.23
70250;BME280;57644;48.416;-123.374;2022-10-03T07:57:57;101663.72;;;8.36;75.16
70250;BME280;57644;48.416;-123.374;2022-10-03T08:00:20;101664.51;;;8.41;74.99
70250;BME280;57644;48.416;-123.374;2022-10-03T08:05:26;101666.54;;;8.33;75.47
70250;BME280;57644;48.416;-123.374;2022-10-03T08:07:57;101667.33;;;8.34;75.26
70250;BME280;57644;48.416;-123.374;2022-10-03T08:15:26;101670.40;;;8.36;75.34
70250;BME280;57644;48.416;-123.374;2022-10-03T08:17:58;101669.41;;;8.39;74.97
70250;BME280;57644;48.416;-123.374;2022-10-03T08:20:31;101668.49;;;8.43;75.01
70250;BME280;57644;48.416;-123.374;2022-10-03T08:23:01;101672.34;;;8.40;74.77
70250;BME280;57644;48.416;-123.374;2022-10-03T08:25:27;101669.44;;;8.38;74.74
70250;BME280;57644;48.416;-123.374;2022-10-03T08:28:01;101669.96;;;8.41;74.73
70250;BME280;57644;48.416;-123.374;2022-10-03T08:30:24;101674.65;;;8.35;75.06
70250;BME280;57644;48.416;-123.374;2022-10-03T08:35:29;101684.23;;;8.19;75.60
70250;BME280;57644;48.416;-123.374;2022-10-03T08:50:32;101697.04;;;8.09;75.64
70250;BME280;57644;48.416;-123.374;2022-10-03T09:00:27;101702.47;;;8.05;75.46
70250;BME280;57644;48.416;-123.374;2022-10-03T09:05:37;101707.72;;;8.03;76.13
70250;BME280;57644;48.416;-123.374;2022-10-03T09:10:35;101707.81;;;8.02;75.74
70250;BME280;57644;48.416;-123.374;2022-10-03T09:18:04;101721.72;;;7.90;75.87
70250;BME280;57644;48.416;-123.374;2022-10-03T09:23:07;101721.65;;;7.82;75.61
70250;BME280;57644;48.416;-123.374;2022-10-03T09:25:41;101722.67;;;7.84;75.33
70250;BME280;57644;48.416;-123.374;2022-10-03T09:35:40;101719.62;;;7.54;76.51
70250;BME280;57644;48.416;-123.374;2022-10-03T09:43:08;101722.17;;;7.54;76.63
70250;BME280;57644;48.416;-123.374;2022-10-03T09:45:38;101726.13;;;7.49;76.79
70250;BME280;57644;48.416;-123.374;2022-10-03T09:55:41;101730.56;;;7.31;77.11
70250;BME280;57644;48.416;-123.374;2022-10-03T10:00:44;101732.06;;;7.08;78.19
70250;BME280;57644;48.416;-123.374;2022-10-03T10:05:49;101735.49;;;7.06;78.15
70250;BME280;57644;48.416;-123.374;2022-10-03T10:10:47;101734.21;;;7.19;77.60
70250;BME280;57644;48.416;-123.374;2022-10-03T10:13:11;101735.98;;;7.18;77.62
70250;BME280;57644;48.416;-123.374;2022-10-03T10:23:17;101739.46;;;7.24;77.72
70250;BME280;57644;48.416;-123.374;2022-10-03T10:25:52;101739.22;;;7.17;78.15
70250;BME280;57644;48.416;-123.374;2022-10-03T10:28:21;101738.45;;;7.25;77.52
70250;BME280;57644;48.416;-123.374;2022-10-03T10:30:54;101735.76;;;7.21;77.75
70250;BME280;57644;48.416;-123.374;2022-10-03T10:45:48;101730.80;;;7.02;79.52
70250;BME280;57644;48.416;-123.374;2022-10-03T11:11:00;101731.68;;;7.02;79.75
70250;BME280;57644;48.416;-123.374;2022-10-03T11:38:20;101753.59;;;7.20;78.51
70250;BME280;57644;48.416;-123.374;2022-10-03T11:40:58;101755.81;;;7.27;78.20
70250;BME280;57644;48.416;-123.374;2022-10-03T11:45:54;101752.37;;;7.26;78.14
70250;BME280;57644;48.416;-123.374;2022-10-03T11:48:33;101754.10;;;7.23;78.14
70250;BME280;57644;48.416;-123.374;2022-10-03T11:50:53;101756.73;;;7.23;77.84
70250;BME280;57644;48.416;-123.374;2022-10-03T11:53:34;101761.29;;;7.19;77.80
70250;BME280;57644;48.416;-123.374;2022-10-03T11:55:59;101759.85;;;7.22;77.36
70250;BME280;57644;48.416;-123.374;2022-10-03T11:58:34;101760.83;;;7.21;77.35
70250;BME280;57644;48.416;-123.374;2022-10-03T12:01:00;101766.26;;;7.20;77.20
70250;BME280;57644;48.416;-123.374;2022-10-03T12:03:25;101768.42;;;7.12;77.67
70250;BME280;57644;48.416;-123.374;2022-10-03T12:05:56;101770.44;;;7.11;77.57
70250;BME280;57644;48.416;-123.374;2022-10-03T12:08:27;101769.56;;;7.14;77.52
70250;BME280;57644;48.416;-123.374;2022-10-03T12:11:02;101767.41;;;7.12;77.44
70250;BME280;57644;48.416;-123.374;2022-10-03T12:13:31;101769.67;;;7.07;77.39
70250;BME280;57644;48.416;-123.374;2022-10-03T12:15:56;101771.03;;;7.01;77.58
70250;BME280;57644;48.416;-123.374;2022-10-03T12:18:31;101770.76;;;6.88;78.25
70250;BME280;57644;48.416;-123.374;2022-10-03T12:21:04;101775.59;;;6.89;78.24
70250;BME280;57644;48.416;-123.374;2022-10-03T12:23:35;101778.59;;;6.88;78.15
70250;BME280;57644;48.416;-123.374;2022-10-03T12:25:58;101781.40;;;6.95;77.83
70250;BME280;57644;48.416;-123.374;2022-10-03T12:28:30;101781.96;;;6.83;78.16
70250;BME280;57644;48.416;-123.374;2022-10-03T12:31:01;101785.52;;;6.86;77.80
70250;BME280;57644;48.416;-123.374;2022-10-03T12:33:43;101787.19;;;6.83;77.95
70250;BME280;57644;48.416;-123.374;2022-10-03T12:36:04;101784.97;;;6.80;78.07
70250;BME280;57644;48.416;-123.374;2022-10-03T12:38:39;101782.84;;;6.69;78.57
70250;BME280;57644;48.416;-123.374;2022-10-03T12:41:08;101783.99;;;6.42;79.84
70250;BME280;57644;48.416;-123.374;2022-10-03T12:43:41;101786.47;;;6.48;79.42
70250;BME280;57644;48.416;-123.374;2022-10-03T12:46:02;101796.80;;;6.55;79.01
70250;BME280;57644;48.416;-123.374;2022-10-03T12:48:39;101800.63;;;6.53;79.37
70250;BME280;57644;48.416;-123.374;2022-10-03T12:51:04;101798.43;;;6.56;79.24
70250;BME280;57644;48.416;-123.374;2022-10-03T12:53:38;101793.61;;;6.59;79.09
70250;BME280;57644;48.416;-123.374;2022-10-03T12:56:10;101790.98;;;6.60;79.15
70250;BME280;57644;48.416;-123.374;2022-10-03T12:58:42;101791.27;;;6.45;79.51
70250;BME280;57644;48.416;-123.374;2022-10-03T13:01:09;101793.63;;;6.40;79.60
70250;BME280;57644;48.416;-123.374;2022-10-03T13:03:39;101791.98;;;6.43;79.43
70250;BME280;57644;48.416;-123.374;2022-10-03T13:06:11;101790.65;;;6.46;79.39
70250;BME280;57644;48.416;-123.374;2022-10-03T13:08:44;101789.51;;;6.48;79.23
70250;BME280;57644;48.416;-123.374;2022-10-03T13:11:12;101786.81;;;6.53;78.97
70250;BME280;57644;48.416;-123.374;2022-10-03T13:13:51;101787.31;;;6.58;78.87
70250;BME280;57644;48.416;-123.374;2022-10-03T13:16:15;101793.18;;;6.46;79.16
70250;BME280;57644;48.416;-123.374;2022-10-03T13:18:43;101798.13;;;6.47;78.91
70250;BME280;57644;48.416;-123.374;2022-10-03T13:21:10;101800.33;;;6.49;78.90
70250;BME280;57644;48.416;-123.374;2022-10-03T13:23:41;101804.72;;;6.46;79.07
70250;BME280;57644;48.416;-123.374;2022-10-03T13:26:09;101809.09;;;6.46;79.11
70250;BME280;57644;48.416;-123.374;2022-10-03T13:28:46;101812.84;;;6.36;79.33
70250;BME280;57644;48.416;-123.374;2022-10-03T13:31:13;101814.43;;;6.10;80.82
70250;BME280;57644;48.416;-123.374;2022-10-03T13:33:41;101814.65;;;6.00;80.97
70250;BME280;57644;48.416;-123.374;2022-10-03T13:36:14;101815.20;;;6.10;80.63
70250;BME280;57644;48.416;-123.374;2022-10-03T13:38:49;101816.70;;;6.01;80.96
70250;BME280;57644;48.416;-123.374;2022-10-03T13:41:16;101820.17;;;6.06;81.06
70250;BME280;57644;48.416;-123.374;2022-10-03T13:43:38;101821.38;;;6.12;80.37
70250;BME280;57644;48.416;-123.374;2022-10-03T13:46:13;101819.55;;;6.24;79.71
70250;BME280;57644;48.416;-123.374;2022-10-03T13:48:39;101823.39;;;6.31;79.42
70250;BME280;57644;48.416;-123.374;2022-10-03T13:51:17;101830.02;;;6.34;79.02
70250;BME280;57644;48.416;-123.374;2022-10-03T13:56:13;101830.52;;;6.39;78.72
70250;BME280;57644;48.416;-123.374;2022-10-03T13:58:46;101834.24;;;6.29;79.34
70250;BME280;57644;48.416;-123.374;2022-10-03T14:01:23;101831.31;;;6.31;79.23
70250;BME280;57644;48.416;-123.374;2022-10-03T14:03:48;101831.70;;;6.30;79.82
70250;BME280;57644;48.416;-123.374;2022-10-03T14:06:17;101829.73;;;6.23;79.92
70250;BME280;57644;48.416;-123.374;2022-10-03T14:11:22;101834.76;;;6.25;79.61
70250;BME280;57644;48.416;-123.374;2022-10-03T14:13:53;101832.67;;;6.26;79.93
70250;BME280;57644;48.416;-123.374;2022-10-03T14:16:17;101832.87;;;6.08;81.15
70250;BME280;57644;48.416;-123.374;2022-10-03T14:18:50;101830.39;;;6.19;80.32
70250;BME280;57644;48.416;-123.374;2022-10-03T14:21:23;101830.58;;;6.12;80.61
70250;BME280;57644;48.416;-123.374;2022-10-03T14:23:48;101831.73;;;6.16;80.48
70250;BME280;57644;48.416;-123.374;2022-10-03T14:26:18;101831.35;;;6.16;80.46
70250;BME280;57644;48.416;-123.374;2022-10-03T14:28:48;101831.56;;;6.22;80.33
70250;BME280;57644;48.416;-123.374;2022-10-03T14:31:21;101828.96;;;6.19;80.74
70250;BME280;57644;48.416;-123.374;2022-10-03T14:33:47;101829.41;;;6.05;81.30
70250;BME280;57644;48.416;-123.374;2022-10-03T14:36:27;101830.27;;;6.10;80.92
70250;BME280;57644;48.416;-123.374;2022-10-03T14:38:55;101830.74;;;6.15;80.77
70250;BME280;57644;48.416;-123.374;2022-10-03T14:41:19;101829.97;;;6.24;80.52
70250;BME280;57644;48.416;-123.374;2022-10-03T14:43:51;101833.15;;;6.29;80.47
70250;BME280;57644;48.416;-123.374;2022-10-03T14:46:19;101834.35;;;6.22;80.89
70250;BME280;57644;48.416;-123.374;2022-10-03T14:48:50;101834.05;;;6.27;80.77
70250;BME280;57644;48.416;-123.374;2022-10-03T14:51:21;101834.55;;;6.34;80.55
70250;BME280;57644;48.416;-123.374;2022-10-03T14:53:54;101834.89;;;6.35;81.02
70250;BME280;57644;48.416;-123.374;2022-10-03T14:56:20;101834.25;;;6.48;81.02
70250;BME280;57644;48.416;-123.374;2022-10-03T14:58:53;101833.48;;;6.87;80.09
70250;BME280;57644;48.416;-123.374;2022-10-03T15:01:21;101839.74;;;7.19;79.04
70250;BME280;57644;48.416;-123.374;2022-10-03T15:03:59;101841.65;;;7.33;78.18
70250;BME280;57644;48.416;-123.374;2022-10-03T15:06:32;101844.25;;;7.54;77.39
70250;BME280;57644;48.416;-123.374;2022-10-03T15:08:53;101846.51;;;7.62;77.01
70250;BME280;57644;48.416;-123.374;2022-10-03T15:11:25;101849.72;;;7.74;76.76
70250;BME280;57644;48.416;-123.374;2022-10-03T15:13:55;101850.87;;;7.92;76.30
70250;BME280;57644;48.416;-123.374;2022-10-03T15:16:24;101855.98;;;8.14;75.57
70250;BME280;57644;48.416;-123.374;2022-10-03T15:18:56;101856.17;;;8.23;75.13
70250;BME280;57644;48.416;-123.374;2022-10-03T15:21:24;101861.34;;;8.40;75.08
70250;BME280;57644;48.416;-123.374;2022-10-03T15:23:58;101856.28;;;8.70;73.89
70250;BME280;57644;48.416;-123.374;2022-10-03T15:26:26;101853.78;;;8.99;72.78
70250;BME280;57644;48.416;-123.374;2022-10-03T15:28:56;101851.94;;;9.36;72.09
70250;BME280;57644;48.416;-123.374;2022-10-03T15:31:33;101851.55;;;9.85;70.95
70250;BME280;57644;48.416;-123.374;2022-10-03T15:33:56;101850.18;;;10.21;69.79
70250;BME280;57644;48.416;-123.374;2022-10-03T15:36:29;101853.30;;;10.28;68.72
70250;BME280;57644;48.416;-123.374;2022-10-03T15:38:59;101853.28;;;10.52;68.19
70250;BME280;57644;48.416;-123.374;2022-10-03T15:41:30;101851.69;;;10.96;67.52
70250;BME280;57644;48.416;-123.374;2022-10-03T15:43:59;101850.34;;;11.40;65.79
70250;BME280;57644;48.416;-123.374;2022-10-03T15:46:32;101852.06;;;11.72;65.70
70250;BME280;57644;48.416;-123.374;2022-10-03T15:49:00;101855.87;;;12.14;64.22
70250;BME280;57644;48.416;-123.374;2022-10-03T15:51:28;101856.37;;;12.55;62.53
70250;BME280;57644;48.416;-123.374;2022-10-03T15:53:59;101856.34;;;12.89;61.75
70250;BME280;57644;48.416;-123.374;2022-10-03T15:56:34;101852.18;;;13.42;60.16
70250;BME280;57644;48.416;-123.374;2022-10-03T15:59:04;101847.21;;;14.05;57.78
70250;BME280;57644;48.416;-123.374;2022-10-03T16:01:33;101851.14;;;14.86;56.19
70250;BME280;57644;48.416;-123.374;2022-10-03T16:04:02;101848.72;;;15.66;54.23
70250;BME280;57644;48.416;-123.374;2022-10-03T16:06:37;101851.12;;;16.43;52.55
70250;BME280;57644;48.416;-123.374;2022-10-03T16:09:04;101846.68;;;17.14;50.22
70250;BME280;57644;48.416;-123.374;2022-10-03T16:11:37;101845.64;;;17.89;48.23
70250;BME280;57644;48.416;-123.374;2022-10-03T16:14:13;101843.96;;;18.45;47.27
70250;BME280;57644;48.416;-123.374;2022-10-03T16:16:37;101844.09;;;18.93;45.04
70250;BME280;57644;48.416;-123.374;2022-10-03T16:21:40;101845.32;;;19.96;42.29
70250;BME280;57644;48.416;-123.374;2022-10-03T16:24:07;101850.79;;;20.26;42.50
70250;BME280;57644;48.416;-123.374;2022-10-03T16:26:42;101854.07;;;20.63;41.88
70250;BME280;57644;48.416;-123.374;2022-10-03T16:29:12;101856.69;;;21.04;41.07
70250;BME280;57644;48.416;-123.374;2022-10-03T16:31:40;101855.50;;;21.38;39.39
70250;BME280;57644;48.416;-123.374;2022-10-03T16:34:13;101853.07;;;21.69;39.06
70250;BME280;57644;48.416;-123.374;2022-10-03T16:36:42;101852.62;;;22.03;38.59
70250;BME280;57644;48.416;-123.374;2022-10-03T16:39:18;101856.50;;;22.39;37.27
70250;BME280;57644;48.416;-123.374;2022-10-03T16:41:41;101857.99;;;22.83;36.66
70250;BME280;57644;48.416;-123.374;2022-10-03T16:44:18;101859.12;;;23.26;36.17
70250;BME280;57644;48.416;-123.374;2022-10-03T16:46:42;101858.99;;;23.63;35.11
70250;BME280;57644;48.416;-123.374;2022-10-03T16:49:17;101854.22;;;23.94;34.38
70250;BME280;57644;48.416;-123.374;2022-10-03T16:51:43;101855.12;;;24.30;34.32
70250;BME280;57644;48.416;-123.374;2022-10-03T16:54:15;101853.69;;;24.67;33.84
70250;BME280;57644;48.416;-123.374;2022-10-03T16:56:44;101856.61;;;24.93;33.58
70250;BME280;57644;48.416;-123.374;2022-10-03T16:59:15;101854.09;;;25.30;32.55
70250;BME280;57644;48.416;-123.374;2022-10-03T17:01:46;101855.75;;;25.72;31.53
70250;BME280;57644;48.416;-123.374;2022-10-03T17:04:18;101856.54;;;25.72;31.62
70250;BME280;57644;48.416;-123.374;2022-10-03T17:06:46;101856.95;;;25.81;31.70
70250;BME280;57644;48.416;-123.374;2022-10-03T17:09:19;101853.12;;;26.02;31.42
70250;BME280;57644;48.416;-123.374;2022-10-03T17:11:48;101849.22;;;26.28;30.32
70250;BME280;57644;48.416;-123.374;2022-10-03T17:14:17;101847.34;;;26.49;30.45
70250;BME280;57644;48.416;-123.374;2022-10-03T17:16:48;101849.27;;;26.74;29.96
70250;BME280;57644;48.416;-123.374;2022-10-03T17:19:20;101848.02;;;26.81;29.20